Time;durP1;ratioP1;P1;durP2;ratioP2;P2;SDS_P1;SDS_P2;PMS_P1;PMS_P2;Temp;Humidity;BMP_temperature;BMP_pressure;BME280_temperature;BME280_humidity;BME280_pressure;Samples;Min_cycle;Max_cycle;Signal;HPM_P1;HPM_P2
2022/12/03 00:02:50;;;;;;;;;;;;;;;2.72;87.01;99443.09;10216865;23;20227;-75
2022/12/03 00:06:52;;;;;;;;;;;;;;;2.72;87.22;99450.78;10199707;23;19959;-75
2022/12/03 00:10:53;;;;;;;;;;;;;;;2.72;87.14;99449.09;10198378;23;19931;-75
2022/12/03 00:14:55;;;;;;;;;;;;;;;2.75;87.34;99445.75;10220443;23;19931;-74
2022/12/03 00:18:59;;;;;;;;;;;;;;;2.77;87.04;99451.78;10224408;23;19932;-75
2022/12/03 00:23:01;;;;;;;;;;;;;;;2.76;87.28;99451.75;10225069;23;20003;-75
2022/12/03 00:27:02;;;;;;;;;;;;;;;2.77;87.41;99449.22;10200079;23;19977;-75
2022/12/03 00:31:04;;;;;;;;;;;;;;;2.79;87.37;99454.38;10223897;23;19920;-75
2022/12/03 01:23:05;;;;;;;;;;;;;;;2.55;88.44;99447.75;10211051;23;19924;-75
2022/12/03 01:27:06;;;;;;;;;;;;;;;2.56;88.31;99443.50;10199011;23;20454;-75
2022/12/03 01:35:28;;;;;;;;;;;;;;;2.56;88.40;99446.06;10222737;23;20015;-75
2022/12/03 01:39:29;;;;;;;;;;;;;;;2.55;88.17;99450.31;10226875;23;19950;-75
2022/12/03 01:43:31;;;;;;;;;;;;;;;2.53;88.45;99456.22;10227922;23;19981;-75
2022/12/03 01:47:33;;;;;;;;;;;;;;;2.50;88.69;99451.84;10216993;23;19932;-75
2022/12/03 01:51:34;;;;;;;;;;;;;;;2.48;88.60;99440.69;10222961;23;19924;-75
2022/12/03 01:55:36;;;;;;;;;;;;;;;2.47;88.39;99438.97;10223669;23;19924;-76
2022/12/03 01:59:37;;;;;;;;;;;;;;;2.51;89.12;99442.47;10227488;23;19952;-75
2022/12/03 02:03:39;;;;;;;;;;;;;;;2.50;88.83;99435.63;10190381;23;20006;-75
2022/12/03 02:07:42;;;;;;;;;;;;;;;2.54;89.17;99434.91;10223457;23;19995;-75
2022/12/03 02:11:45;;;;;;;;;;;;;;;2.56;88.93;99446.06;10200270;23;19924;-75
2022/12/03 02:15:47;;;;;;;;;;;;;;;2.49;89.19;99442.44;10218864;23;20218;-75
2022/12/03 02:19:48;;;;;;;;;;;;;;;2.47;89.43;99446.66;10201914;23;19932;-74
2022/12/03 02:24:09;;;;;;;;;;;;;;;2.41;89.07;99455.03;10202075;23;19956;-76
2022/12/03 02:28:10;;;;;;;;;;;;;;;2.42;89.26;99446.53;10228517;23;19924;-75
2022/12/03 02:32:12;;;;;;;;;;;;;;;2.46;89.24;99450.03;10191963;23;20477;-75
2022/12/03 02:36:15;;;;;;;;;;;;;;;2.45;89.37;99450.88;10220946;23;20569;-75
2022/12/03 02:40:20;;;;;;;;;;;;;;;2.47;89.20;99445.78;10222919;23;19955;-75
2022/12/03 02:44:27;;;;;;;;;;;;;;;2.47;89.23;99458.59;10220491;23;19924;-75
2022/12/03 02:48:34;;;;;;;;;;;;;;;2.46;88.76;99450.03;10191344;23;20003;-74
2022/12/03 02:52:42;;;;;;;;;;;;;;;2.50;89.07;99454.41;10218159;23;20036;-75
2022/12/03 02:56:47;;;;;;;;;;;;;;;2.49;88.92;99447.56;10218150;23;20469;-75
2022/12/03 03:00:52;;;;;;;;;;;;;;;2.50;88.77;99449.28;10216082;23;19924;-75
2022/12/03 03:04:55;;;;;;;;;;;;;;;2.51;88.77;99451.03;10230590;23;19924;-75
2022/12/03 03:08:57;;;;;;;;;;;;;;;2.50;89.00;99443.31;10231029;23;19963;-75
2022/12/03 03:12:58;;;;;;;;;;;;;;;2.51;89.09;99445.03;10231525;23;19986;-75
2022/12/03 03:16:59;;;;;;;;;;;;;;;2.50;88.88;99441.59;10224091;23;19924;-75
2022/12/03 03:21:01;;;;;;;;;;;;;;;2.54;88.92;99432.34;10232502;23;19956;-75
2022/12/03 03:25:03;;;;;;;;;;;;;;;2.58;89.05;99426.47;10231969;23;19962;-75
2022/12/03 03:29:04;;;;;;;;;;;;;;;2.60;88.86;99429.94;10231291;23;19935;-75
2022/12/03 03:33:06;;;;;;;;;;;;;;;2.59;89.16;99429.06;10247916;23;19924;-75
2022/12/03 03:37:08;;;;;;;;;;;;;;;2.57;88.87;99428.16;10231858;23;19920;-75
2022/12/03 03:41:10;;;;;;;;;;;;;;;2.56;89.20;99425.56;10206227;23;20303;-75
2022/12/03 03:45:12;;;;;;;;;;;;;;;2.58;89.04;99421.34;10225099;23;19924;-75
2022/12/03 03:49:13;;;;;;;;;;;;;;;2.61;89.22;99417.16;10229634;23;19924;-75
2022/12/03 03:53:15;;;;;;;;;;;;;;;2.65;89.14;99416.41;10255809;23;19924;-75
2022/12/03 03:57:17;;;;;;;;;;;;;;;2.65;88.92;99407.84;10207125;23;19944;-75
2022/12/03 04:01:18;;;;;;;;;;;;;;;2.65;88.88;99400.16;10222580;23;19936;-75
2022/12/03 04:05:20;;;;;;;;;;;;;;;2.65;89.08;99398.47;10226591;23;20213;-75
2022/12/03 04:09:22;;;;;;;;;;;;;;;2.65;88.84;99403.59;10225864;23;19960;-75
2022/12/03 04:13:23;;;;;;;;;;;;;;;2.67;88.64;99401.94;10199737;23;20556;-75
2022/12/03 04:17:25;;;;;;;;;;;;;;;2.68;89.16;99411.34;10225014;23;20006;-75
2022/12/03 04:30:07;;;;;;;;;;;;;;;2.77;89.52;99413.31;10218884;23;19963;-75
2022/12/03 04:38:29;;;;;;;;;;;;;;;2.72;89.14;99402.09;10226273;23;20307;-75
2022/12/03 04:42:31;;;;;;;;;;;;;;;2.70;89.25;99401.19;10225745;23;19920;-75
2022/12/03 04:46:32;;;;;;;;;;;;;;;2.70;89.11;99396.06;10218028;23;19924;-75
2022/12/03 04:50:33;;;;;;;;;;;;;;;2.70;89.70;99401.19;10225577;23;19978;-75
2022/12/03 04:54:36;;;;;;;;;;;;;;;2.71;89.70;99402.91;10227282;23;19986;-75
2022/12/03 04:58:37;;;;;;;;;;;;;;;2.72;89.48;99407.22;10226591;23;19970;-75
2022/12/03 05:02:39;;;;;;;;;;;;;;;2.73;89.72;99411.50;10193775;23;19962;-75
2022/12/03 05:06:41;;;;;;;;;;;;;;;2.71;89.37;99418.28;10225009;23;20266;-76
2022/12/03 05:10:42;;;;;;;;;;;;;;;2.70;89.55;99419.13;10226790;23;19955;-75
2022/12/03 05:14:44;;;;;;;;;;;;;;;2.67;89.24;99414.75;10201223;23;20011;-76
2022/12/03 05:18:45;;;;;;;;;;;;;;;2.68;89.93;99421.63;10218009;23;20225;-75
2022/12/03 05:22:47;;;;;;;;;;;;;;;2.67;89.67;99408.75;10226512;23;19924;-75
2022/12/03 05:26:48;;;;;;;;;;;;;;;2.64;89.66;99409.56;10200253;23;20120;-75
2022/12/03 05:30:50;;;;;;;;;;;;;;;2.66;89.69;99415.59;10192161;23;19943;-76
2022/12/03 05:34:51;;;;;;;;;;;;;;;2.63;89.64;99418.06;10200863;23;19994;-75
2022/12/03 05:38:53;;;;;;;;;;;;;;;2.61;90.15;99401.78;10224949;23;19931;-76
2022/12/03 05:42:59;;;;;;;;;;;;;;;2.62;90.18;99402.66;10225726;23;19956;-75
2022/12/03 05:47:01;;;;;;;;;;;;;;;2.60;89.92;99402.59;10218747;23;19924;-76
2022/12/03 05:51:02;;;;;;;;;;;;;;;2.62;90.11;99402.66;10225147;23;20391;-76
2022/12/03 05:55:04;;;;;;;;;;;;;;;2.59;89.91;99393.19;10199779;23;19924;-75
2022/12/03 05:59:05;;;;;;;;;;;;;;;2.58;90.07;99393.16;10224760;23;19963;-75
2022/12/03 06:03:07;;;;;;;;;;;;;;;2.56;90.12;99399.94;10199449;23;20031;-76
2022/12/03 06:07:08;;;;;;;;;;;;;;;2.56;90.24;99408.47;10197855;23;20334;-75
2022/12/03 06:11:14;;;;;;;;;;;;;;;2.56;90.07;99405.06;10223992;23;19935;-75
2022/12/03 06:15:16;;;;;;;;;;;;;;;2.53;90.28;99407.53;10190902;23;19966;-75
2022/12/03 06:19:17;;;;;;;;;;;;;;;2.52;90.14;99400.69;10248156;23;19944;-75
2022/12/03 06:23:19;;;;;;;;;;;;;;;2.53;90.38;99402.41;10200623;23;19935;-75
2022/12/03 06:27:20;;;;;;;;;;;;;;;2.51;90.78;99402.34;10226930;23;19920;-75
2022/12/03 06:31:21;;;;;;;;;;;;;;;2.49;90.49;99398.00;10220518;23;19978;-76
2022/12/03 06:35:23;;;;;;;;;;;;;;;2.47;90.35;99397.97;10200963;23;19947;-76
2022/12/03 06:39:24;;;;;;;;;;;;;;;2.46;90.57;99391.09;10228444;23;19928;-76
2022/12/03 06:43:26;;;;;;;;;;;;;;;2.49;90.35;99395.44;10228511;23;19974;-76
2022/12/03 06:47:27;;;;;;;;;;;;;;;2.49;90.51;99406.56;10195877;23;19948;-76
2022/12/03 06:51:29;;;;;;;;;;;;;;;2.48;90.36;99402.25;10229149;23;19960;-76
2022/12/03 06:55:30;;;;;;;;;;;;;;;2.47;90.80;99400.53;10204312;23;20019;-76
2022/12/03 06:59:33;;;;;;;;;;;;;;;2.49;90.73;99404.00;10227698;23;19924;-76
2022/12/03 07:03:34;;;;;;;;;;;;;;;2.49;90.45;99408.25;10219675;23;20387;-76
2022/12/03 07:07:35;;;;;;;;;;;;;;;2.48;90.45;99404.81;10202241;23;19932;-76
2022/12/03 07:11:40;;;;;;;;;;;;;;;2.51;90.56;99420.28;10228976;23;19951;-75
2022/12/03 07:15:41;;;;;;;;;;;;;;;2.53;90.79;99420.34;10192117;23;19962;-76
2022/12/03 07:19:43;;;;;;;;;;;;;;;2.54;90.62;99430.63;10200790;23;19921;-77
2022/12/03 07:23:44;;;;;;;;;;;;;;;2.54;90.80;99442.59;10198975;23;19924;-75
2022/12/03 07:27:45;;;;;;;;;;;;;;;2.54;90.82;99442.59;10223777;23;20619;-75
2022/12/03 07:31:47;;;;;;;;;;;;;;;2.56;90.51;99446.94;10217490;23;19958;-74
2022/12/03 07:35:48;;;;;;;;;;;;;;;2.56;90.29;99438.38;10224951;23;20003;-74
2022/12/03 07:39:51;;;;;;;;;;;;;;;2.56;90.37;99443.50;10224413;23;20346;-73
2022/12/03 07:43:52;;;;;;;;;;;;;;;2.59;90.71;99433.31;10189903;23;19960;-73
2022/12/03 07:47:53;;;;;;;;;;;;;;;2.59;90.76;99434.19;10207874;23;19924;-73
2022/12/03 07:51:56;;;;;;;;;;;;;;;2.59;89.96;99443.56;10217441;23;20403;-75
2022/12/03 07:55:59;;;;;;;;;;;;;;;2.58;90.30;99434.16;10214835;23;20012;-75
2022/12/03 08:00:04;;;;;;;;;;;;;;;2.59;90.29;99436.75;10191439;23;20026;-75
2022/12/03 08:04:05;;;;;;;;;;;;;;;2.62;90.52;99436.84;10222030;23;19924;-76
2022/12/03 08:08:07;;;;;;;;;;;;;;;2.65;90.50;99433.47;10223843;23;20024;-76
2022/12/03 08:12:16;;;;;;;;;;;;;;;2.62;90.20;99433.41;10222711;23;19935;-76
2022/12/03 08:16:18;;;;;;;;;;;;;;;2.61;89.77;99422.28;10213483;23;20273;-76
2022/12/03 08:20:21;;;;;;;;;;;;;;;2.64;89.56;99416.38;10223596;23;19924;-76
2022/12/03 08:24:23;;;;;;;;;;;;;;;2.64;89.57;99413.81;10225293;23;20390;-76
2022/12/03 08:28:25;;;;;;;;;;;;;;;2.63;89.50;99419.75;10224836;23;19920;-77
2022/12/03 08:32:27;;;;;;;;;;;;;;;2.63;89.12;99419.75;10217994;23;19924;-76
2022/12/03 08:36:31;;;;;;;;;;;;;;;2.64;89.26;99411.25;10198358;23;20347;-76
2022/12/03 08:40:39;;;;;;;;;;;;;;;2.65;89.30;99406.16;10224984;23;20610;-76
2022/12/03 08:44:41;;;;;;;;;;;;;;;2.67;89.28;99416.44;10224624;23;20004;-77
2022/12/03 08:48:43;;;;;;;;;;;;;;;2.68;89.30;99421.63;10193541;23;19924;-76
2022/12/03 08:52:50;;;;;;;;;;;;;;;2.69;88.88;99414.78;10225308;23;20275;-77
2022/12/03 08:56:52;;;;;;;;;;;;;;;2.70;88.85;99407.19;10221049;23;19924;-76
2022/12/03 09:00:59;;;;;;;;;;;;;;;2.72;88.38;99402.94;10218731;23;20011;-76
2022/12/03 09:05:15;;;;;;;;;;;;;;;2.73;88.15;99399.56;10199358;23;19986;-76
2022/12/03 09:09:16;;;;;;;;;;;;;;;2.79;88.35;99403.97;10225389;23;19924;-76
2022/12/03 09:13:18;;;;;;;;;;;;;;;2.84;88.30;99404.09;10226001;23;19928;-76
2022/12/03 09:17:19;;;;;;;;;;;;;;;2.88;88.11;99409.34;10248790;23;19928;-77
2022/12/03 09:21:20;;;;;;;;;;;;;;;2.92;88.01;99416.28;10246023;23;19924;-77
2022/12/03 09:25:22;;;;;;;;;;;;;;;2.91;87.55;99412.00;10247171;23;19920;-77
2022/12/03 09:29:23;;;;;;;;;;;;;;;2.92;86.85;99408.59;10245458;23;19951;-77
2022/12/03 09:33:26;;;;;;;;;;;;;;;2.94;86.97;99406.06;10232743;23;20324;-76
2022/12/03 09:37:27;;;;;;;;;;;;;;;2.96;86.96;99404.41;10213157;23;19920;-77
2022/12/03 09:41:29;;;;;;;;;;;;;;;2.97;86.83;99403.59;10242311;23;19931;-77
2022/12/03 09:45:30;;;;;;;;;;;;;;;3.00;86.07;99390.84;10247975;23;19943;-76
2022/12/03 09:49:34;;;;;;;;;;;;;;;3.04;86.00;99383.25;10229021;23;20547;-77
2022/12/03 09:53:36;;;;;;;;;;;;;;;3.07;86.29;99385.06;10245103;23;20273;-75
2022/12/03 09:57:41;;;;;;;;;;;;;;;3.11;85.95;99379.16;10251357;23;19921;-76
2022/12/03 10:01:43;;;;;;;;;;;;;;;3.14;86.01;99373.25;10242994;23;19924;-77
2022/12/03 10:05:45;;;;;;;;;;;;;;;3.16;85.72;99367.31;10251697;23;20252;-77
2022/12/03 10:09:49;;;;;;;;;;;;;;;3.20;85.62;99360.56;10253483;23;20086;-80
2022/12/03 10:13:53;;;;;;;;;;;;;;;3.21;85.61;99359.72;10245972;23;19924;-77
2022/12/03 10:17:56;;;;;;;;;;;;;;;3.22;85.24;99364.00;10251225;23;19931;-77
2022/12/03 10:21:59;;;;;;;;;;;;;;;3.18;84.85;99365.66;10235165;23;20444;-76
2022/12/03 10:26:03;;;;;;;;;;;;;;;3.19;84.60;99361.38;10215171;23;19970;-76
2022/12/03 10:30:15;;;;;;;;;;;;;;;3.24;84.63;99347.00;10217282;23;19954;-77
2022/12/03 10:34:29;;;;;;;;;;;;;;;3.29;84.64;99347.97;10226949;23;19924;-77
2022/12/03 10:38:31;;;;;;;;;;;;;;;3.33;84.61;99345.50;10258809;23;19989;-77
2022/12/03 10:42:33;;;;;;;;;;;;;;;3.38;84.73;99348.16;10247519;23;19924;-77
2022/12/03 10:46:44;;;;;;;;;;;;;;;3.36;84.34;99348.97;10231188;23;20011;-77
2022/12/03 10:50:54;;;;;;;;;;;;;;;3.33;83.89;99348.06;10221858;23;19928;-76
2022/12/03 10:54:58;;;;;;;;;;;;;;;3.35;84.32;99350.66;10218247;23;19924;-76
2022/12/03 10:59:03;;;;;;;;;;;;;;;3.40;84.52;99338.78;10221900;23;20552;-76
2022/12/03 11:03:16;;;;;;;;;;;;;;;3.43;84.49;99332.88;10234053;23;20216;-77
2022/12/03 11:07:19;;;;;;;;;;;;;;;3.41;83.95;99327.72;10242174;23;19927;-77
2022/12/03 11:11:25;;;;;;;;;;;;;;;3.42;84.06;99316.63;10238197;23;19993;-76
2022/12/03 11:15:42;;;;;;;;;;;;;;;3.43;83.98;99312.34;10196203;23;20011;-77
2022/12/03 11:19:45;;;;;;;;;;;;;;;3.43;83.91;99310.66;10195293;23;19948;-76
2022/12/03 11:23:51;;;;;;;;;;;;;;;3.44;83.48;99307.25;10221823;23;20561;-76
2022/12/03 11:28:14;;;;;;;;;;;;;;;3.44;82.95;99303.81;10221312;23;20197;-77
2022/12/03 11:37:35;;;;;;;;;;;;;;;3.45;82.81;99293.59;10228834;23;19927;-76
2022/12/03 11:42:10;;;;;;;;;;;;;;;3.47;82.51;99283.34;10221433;23;19990;-76
2022/12/03 12:04:29;;;;;;;;;;;;;;;3.59;81.72;99268.19;10226887;23;19928;-77
2022/12/03 12:08:31;;;;;;;;;;;;;;;3.64;81.96;99272.63;10250799;23;19982;-77
2022/12/03 12:12:37;;;;;;;;;;;;;;;3.65;81.65;99273.47;10227487;23;20121;-76
2022/12/03 12:16:49;;;;;;;;;;;;;;;3.60;81.23;99265.69;10195498;23;20019;-77
2022/12/03 12:20:51;;;;;;;;;;;;;;;3.61;81.48;99258.84;10225516;23;19927;-77
2022/12/03 12:24:54;;;;;;;;;;;;;;;3.64;81.46;99248.66;10248751;23;19923;-76
2022/12/03 12:28:55;;;;;;;;;;;;;;;3.67;81.32;99245.28;10223106;23;20366;-76
2022/12/03 12:33:09;;;;;;;;;;;;;;;3.67;81.37;99240.13;10218014;23;19924;-76
2022/12/03 12:37:11;;;;;;;;;;;;;;;3.70;81.47;99247.91;10224302;23;20011;-77
2022/12/03 12:41:13;;;;;;;;;;;;;;;3.67;80.80;99238.44;10225175;23;19924;-77
2022/12/03 12:45:14;;;;;;;;;;;;;;;3.65;80.73;99227.28;10216005;23;19934;-76
2022/12/03 12:49:20;;;;;;;;;;;;;;;3.65;80.85;99234.97;10223884;23;19936;-76
2022/12/03 12:53:23;;;;;;;;;;;;;;;3.63;80.95;99234.06;10225646;23;20319;-76
2022/12/03 12:57:25;;;;;;;;;;;;;;;3.61;80.87;99230.63;10224533;23;20007;-76
2022/12/03 13:01:26;;;;;;;;;;;;;;;3.64;81.11;99223.84;10215293;23;19974;-76
2022/12/03 13:05:38;;;;;;;;;;;;;;;3.60;80.81;99221.19;10224606;23;19924;-76
2022/12/03 13:09:39;;;;;;;;;;;;;;;3.59;81.21;99220.31;10225897;23;19964;-76
2022/12/03 13:13:41;;;;;;;;;;;;;;;3.56;80.48;99219.38;10224158;23;19924;-76
2022/12/03 13:17:44;;;;;;;;;;;;;;;3.54;80.72;99216.78;10192648;23;19920;-76
2022/12/03 13:21:46;;;;;;;;;;;;;;;3.56;80.58;99214.22;10247151;23;20011;-76
2022/12/03 13:25:50;;;;;;;;;;;;;;;3.58;80.81;99208.28;10222463;23;19935;-77
2022/12/03 13:30:07;;;;;;;;;;;;;;;3.58;80.55;99199.72;10199142;23;19924;-76
2022/12/03 13:34:13;;;;;;;;;;;;;;;3.57;80.64;99201.44;10222614;23;19924;-76
2022/12/03 13:38:15;;;;;;;;;;;;;;;3.56;80.67;99207.41;10225880;23;19966;-76
2022/12/03 13:47:01;;;;;;;;;;;;;;;3.54;80.77;99195.38;10203912;23;19924;-76
2022/12/03 13:51:13;;;;;;;;;;;;;;;3.48;80.31;99191.00;10218339;23;19920;-76
2022/12/03 13:55:22;;;;;;;;;;;;;;;3.46;80.10;99195.22;10219916;23;19986;-76
2022/12/03 13:59:27;;;;;;;;;;;;;;;3.47;80.13;99194.38;10219926;23;19924;-77
2022/12/03 14:03:31;;;;;;;;;;;;;;;3.47;80.23;99196.09;10207092;23;19924;-76
2022/12/03 14:07:36;;;;;;;;;;;;;;;3.47;80.55;99204.66;10218392;23;20594;-76
2022/12/03 14:16:14;;;;;;;;;;;;;;;3.46;81.03;99202.94;10216764;23;19924;-76
2022/12/03 14:20:16;;;;;;;;;;;;;;;3.45;81.00;99200.34;10196270;23;19920;-76
2022/12/03 14:24:20;;;;;;;;;;;;;;;3.41;80.33;99201.06;10196611;23;20011;-76
2022/12/03 14:28:58;;;;;;;;;;;;;;;3.37;80.64;99201.84;10221372;23;19982;-76
2022/12/03 14:33:22;;;;;;;;;;;;;;;3.34;80.96;99200.09;10207891;23;19939;-76
2022/12/03 14:37:25;;;;;;;;;;;;;;;3.28;80.81;99205.97;10221613;23;20436;-76
2022/12/03 14:45:51;;;;;;;;;;;;;;;3.28;81.21;99205.97;10215171;23;19925;-77
2022/12/03 14:49:55;;;;;;;;;;;;;;;3.28;80.77;99207.66;10223817;23;20292;-76
2022/12/03 14:54:07;;;;;;;;;;;;;;;3.27;81.09;99201.69;10221375;23;20309;-76
2022/12/03 14:58:14;;;;;;;;;;;;;;;3.22;81.05;99205.81;10224245;23;20204;-76
2022/12/03 15:02:19;;;;;;;;;;;;;;;3.21;81.34;99198.97;10223315;23;20323;-76
2022/12/03 15:06:21;;;;;;;;;;;;;;;3.22;81.53;99204.94;10227978;23;19948;-76
2022/12/03 15:10:22;;;;;;;;;;;;;;;3.20;81.21;99204.06;10228640;23;19974;-78
2022/12/03 15:14:23;;;;;;;;;;;;;;;3.18;81.10;99200.59;10228650;23;19929;-77
2022/12/03 15:18:25;;;;;;;;;;;;;;;3.16;81.30;99200.56;10221094;23;19928;-77
2022/12/03 15:22:26;;;;;;;;;;;;;;;3.16;81.51;99195.44;10228527;23;19924;-78
2022/12/03 15:26:27;;;;;;;;;;;;;;;3.14;81.51;99193.69;10202073;23;19928;-77
2022/12/03 15:30:30;;;;;;;;;;;;;;;3.15;81.71;99192.84;10222025;23;20011;-76
2022/12/03 15:34:34;;;;;;;;;;;;;;;3.17;81.78;99197.16;10194920;23;20685;-77
2022/12/03 15:44:09;;;;;;;;;;;;;;;3.17;81.40;99207.44;10086572;23;19932;-76
2022/12/03 15:48:12;;;;;;;;;;;;;;;3.15;81.45;99208.22;10066440;23;19925;-77
2022/12/03 15:52:14;;;;;;;;;;;;;;;3.12;81.17;99195.34;10070515;23;19972;-76
2022/12/03 15:56:16;;;;;;;;;;;;;;;3.12;81.49;99203.03;10068372;23;20004;-76
2022/12/03 16:05:22;;;;;;;;;;;;;;;3.11;81.03;99188.47;10071504;23;20273;-76
2022/12/03 16:09:24;;;;;;;;;;;;;;;3.12;81.19;99195.34;10071356;23;19990;-76
2022/12/03 16:13:28;;;;;;;;;;;;;;;3.12;81.36;99190.22;10069480;23;19935;-76
2022/12/03 16:17:31;;;;;;;;;;;;;;;3.12;81.14;99190.22;10081060;23;19931;-76
2022/12/03 16:21:34;;;;;;;;;;;;;;;3.12;81.14;99191.06;10172854;23;19931;-76
2022/12/03 16:30:30;;;;;;;;;;;;;;;3.18;81.54;99183.50;10166044;23;20002;-76
2022/12/03 16:34:31;;;;;;;;;;;;;;;3.18;81.39;99185.19;10175187;23;20007;-77
2022/12/03 16:38:33;;;;;;;;;;;;;;;3.21;81.54;99191.25;10177004;23;19979;-76
2022/12/03 16:42:36;;;;;;;;;;;;;;;3.22;81.32;99187.84;10173524;23;19967;-76
2022/12/03 16:46:38;;;;;;;;;;;;;;;3.23;81.26;99174.22;10169140;23;19932;-76
2022/12/03 16:50:42;;;;;;;;;;;;;;;3.22;81.53;99172.47;10171543;23;19929;-76
2022/12/03 16:54:45;;;;;;;;;;;;;;;3.24;81.31;99187.91;10171723;23;19924;-76
2022/12/03 16:58:46;;;;;;;;;;;;;;;3.27;81.88;99173.44;10171123;23;19929;-76
2022/12/03 17:02:49;;;;;;;;;;;;;;;3.29;81.64;99174.34;10172207;23;19924;-76
2022/12/03 17:07:15;;;;;;;;;;;;;;;3.29;81.46;99176.91;10220877;23;19924;-76
2022/12/03 17:20:31;;;;;;;;;;;;;;;3.27;81.76;99163.19;10221284;23;19924;-76
2022/12/03 17:24:32;;;;;;;;;;;;;;;3.29;82.00;99163.22;10193143;23;20838;-75
2022/12/03 17:28:35;;;;;;;;;;;;;;;3.31;82.41;99164.97;10218529;23;19924;-75
2022/12/03 17:32:37;;;;;;;;;;;;;;;3.34;82.35;99153.91;10208717;23;19925;-75
2022/12/03 17:36:40;;;;;;;;;;;;;;;3.36;82.60;99157.38;10192500;23;19931;-75
2022/12/03 17:40:42;;;;;;;;;;;;;;;3.38;82.66;99149.69;10219316;23;19933;-75
2022/12/03 17:44:43;;;;;;;;;;;;;;;3.34;83.00;99148.78;10220983;23;19955;-75
2022/12/03 17:48:45;;;;;;;;;;;;;;;3.33;82.94;99149.59;10220385;23;19925;-75
2022/12/03 17:52:46;;;;;;;;;;;;;;;3.30;83.08;99141.84;10223318;23;19952;-75
2022/12/03 17:56:48;;;;;;;;;;;;;;;3.31;83.41;99148.72;10222203;23;20603;-75
2022/12/03 18:00:49;;;;;;;;;;;;;;;3.29;83.39;99147.81;10216355;23;20272;-76
2022/12/03 18:04:50;;;;;;;;;;;;;;;3.31;83.58;99146.16;10225243;23;19924;-76
2022/12/03 18:08:52;;;;;;;;;;;;;;;3.31;83.46;99138.44;10202378;23;19928;-76
2022/12/03 18:12:54;;;;;;;;;;;;;;;3.32;83.47;99137.63;10226556;23;19924;-75
2022/12/03 18:17:02;;;;;;;;;;;;;;;3.31;83.20;99139.31;10191777;23;20228;-76
2022/12/03 18:21:03;;;;;;;;;;;;;;;3.32;83.65;99137.63;10226204;23;19999;-76
2022/12/03 18:25:05;;;;;;;;;;;;;;;3.33;83.53;99122.25;10226250;23;20003;-76
2022/12/03 18:29:07;;;;;;;;;;;;;;;3.36;83.57;99126.56;10204746;23;19959;-76
2022/12/03 18:33:09;;;;;;;;;;;;;;;3.36;83.58;99120.56;10191324;23;20020;-75
2022/12/03 18:37:11;;;;;;;;;;;;;;;3.37;83.27;99125.75;10223279;23;19936;-75
2022/12/03 18:41:13;;;;;;;;;;;;;;;3.38;83.57;99121.47;10223523;23;20749;-75
2022/12/03 18:45:16;;;;;;;;;;;;;;;3.34;82.73;99115.41;10218281;23;20213;-75
2022/12/03 18:49:17;;;;;;;;;;;;;;;3.32;82.60;99114.53;10198828;23;19970;-75
2022/12/03 18:53:18;;;;;;;;;;;;;;;3.32;82.91;99111.97;10225074;23;21173;-76
2022/12/03 18:57:20;;;;;;;;;;;;;;;3.33;82.98;99114.56;10224918;23;20015;-75
2022/12/03 19:01:21;;;;;;;;;;;;;;;3.29;82.91;99107.63;10217082;23;20391;-75
2022/12/03 19:05:23;;;;;;;;;;;;;;;3.30;83.28;99099.09;10197235;23;20382;-74
2022/12/03 19:09:24;;;;;;;;;;;;;;;3.29;83.74;99099.94;10221849;23;19928;-75
2022/12/03 19:13:26;;;;;;;;;;;;;;;3.30;83.80;99095.69;10196628;23;20003;-75
2022/12/03 19:17:28;;;;;;;;;;;;;;;3.28;83.72;99095.66;10214345;23;20535;-75
2022/12/03 19:21:29;;;;;;;;;;;;;;;3.24;83.62;99087.88;10221725;23;19982;-75
2022/12/03 19:25:34;;;;;;;;;;;;;;;3.24;84.07;99100.69;10218224;23;20171;-75
2022/12/03 19:29:35;;;;;;;;;;;;;;;3.23;83.77;99101.50;10223618;23;20564;-75
2022/12/03 19:33:37;;;;;;;;;;;;;;;3.22;83.80;99099.78;10221096;23;20304;-75
2022/12/03 19:37:38;;;;;;;;;;;;;;;3.20;83.66;99093.75;10225873;23;19951;-76
2022/12/03 19:41:41;;;;;;;;;;;;;;;3.20;83.81;99104.88;10227322;23;20355;-76
2022/12/03 19:45:43;;;;;;;;;;;;;;;3.21;84.06;99092.91;10219043;23;19970;-76
2022/12/03 19:49:45;;;;;;;;;;;;;;;3.20;83.82;99086.06;10226659;23;19924;-76
2022/12/03 19:53:46;;;;;;;;;;;;;;;3.21;84.03;99092.91;10225170;23;19963;-76
2022/12/03 19:57:47;;;;;;;;;;;;;;;3.22;83.98;99087.81;10199859;23;20362;-76
2022/12/03 20:01:49;;;;;;;;;;;;;;;3.20;83.95;99094.59;10200558;23;19927;-76
2022/12/03 20:05:50;;;;;;;;;;;;;;;3.18;84.23;99092.84;10224510;23;19924;-76
2022/12/03 20:09:52;;;;;;;;;;;;;;;3.17;84.37;99106.50;10228135;23;19995;-76
2022/12/03 20:13:55;;;;;;;;;;;;;;;3.16;84.30;99103.09;10224329;23;19982;-76
2022/12/03 20:17:56;;;;;;;;;;;;;;;3.16;84.59;99103.09;10243212;23;20306;-76
2022/12/03 20:21:59;;;;;;;;;;;;;;;3.14;84.66;99107.31;10198952;23;20007;-76
2022/12/03 20:26:10;;;;;;;;;;;;;;;3.16;84.76;99103.09;10195830;23;19920;-76
2022/12/03 20:30:16;;;;;;;;;;;;;;;3.16;84.80;99089.41;10195298;23;19948;-76
2022/12/03 20:34:17;;;;;;;;;;;;;;;3.15;84.90;99085.97;10217458;23;19978;-75
2022/12/03 20:38:19;;;;;;;;;;;;;;;3.18;84.84;99095.41;10219625;23;19959;-75
2022/12/03 20:42:21;;;;;;;;;;;;;;;3.19;85.14;99084.31;10221018;23;19928;-75
2022/12/03 20:46:27;;;;;;;;;;;;;;;3.21;84.75;99095.47;10219165;23;19999;-75
2022/12/03 20:50:29;;;;;;;;;;;;;;;3.19;84.96;99092.03;10218730;23;20039;-75
2022/12/03 20:54:30;;;;;;;;;;;;;;;3.18;85.09;99088.59;10220846;23;19963;-76
2022/12/03 20:58:32;;;;;;;;;;;;;;;3.15;85.03;99078.28;10219135;23;20003;-75
2022/12/03 21:02:33;;;;;;;;;;;;;;;3.14;84.72;99078.25;10216751;23;19931;-76
2022/12/03 21:06:35;;;;;;;;;;;;;;;3.17;84.97;99078.28;10197122;23;19928;-76
2022/12/03 21:10:44;;;;;;;;;;;;;;;3.16;85.26;99076.56;10221753;23;19924;-75
2022/12/03 21:14:45;;;;;;;;;;;;;;;3.15;85.33;99068.00;10197386;23;20007;-74
2022/12/03 21:18:46;;;;;;;;;;;;;;;3.15;85.13;99074.84;10219910;23;19920;-75
2022/12/03 21:22:49;;;;;;;;;;;;;;;3.12;85.25;99067.97;10224474;23;20019;-75
2022/12/03 21:26:50;;;;;;;;;;;;;;;3.12;85.55;99064.53;10224680;23;19967;-75
2022/12/03 21:30:52;;;;;;;;;;;;;;;3.15;85.74;99072.28;10192568;23;19928;-75
2022/12/03 21:34:53;;;;;;;;;;;;;;;3.11;85.50;99071.34;10224067;23;19939;-76
2022/12/03 21:38:55;;;;;;;;;;;;;;;3.10;85.73;99076.47;10224302;23;20019;-76
2022/12/03 21:42:56;;;;;;;;;;;;;;;3.10;85.33;99079.88;10221068;23;19924;-75
2022/12/03 21:46:57;;;;;;;;;;;;;;;3.11;85.54;99075.63;10217031;23;19924;-74
2022/12/03 21:51:14;;;;;;;;;;;;;;;3.10;85.32;99076.47;10221627;23;20237;-75
2022/12/03 21:55:15;;;;;;;;;;;;;;;3.08;85.38;99068.72;10199394;23;19924;-75
2022/12/03 21:59:17;;;;;;;;;;;;;;;3.09;85.48;99059.34;10224411;23;19924;-74
2022/12/03 22:03:18;;;;;;;;;;;;;;;3.07;85.36;99054.19;10217594;23;19982;-75
2022/12/03 22:07:20;;;;;;;;;;;;;;;3.06;85.36;99047.31;10220463;23;20026;-75
2022/12/03 22:11:22;;;;;;;;;;;;;;;3.07;85.68;99045.63;10216671;23;19962;-75
2022/12/03 22:15:24;;;;;;;;;;;;;;;3.04;85.63;99042.13;10214118;23;19935;-75
2022/12/03 22:19:26;;;;;;;;;;;;;;;3.02;85.63;99038.69;10195340;23;19925;-75
2022/12/03 22:23:30;;;;;;;;;;;;;;;3.03;85.77;99040.41;10224755;23;19924;-74
2022/12/03 22:27:31;;;;;;;;;;;;;;;3.03;85.79;99044.69;10221607;23;20371;-74
2022/12/03 22:31:33;;;;;;;;;;;;;;;3.02;85.70;99037.81;10218936;23;19955;-74
2022/12/03 22:35:34;;;;;;;;;;;;;;;3.03;85.96;99029.28;10221631;23;20624;-74
2022/12/03 22:39:35;;;;;;;;;;;;;;;3.06;86.02;99028.50;10197943;23;20311;-76
2022/12/03 22:43:37;;;;;;;;;;;;;;;3.06;86.08;99025.94;10226702;23;20304;-76
2022/12/03 22:47:39;;;;;;;;;;;;;;;3.04;85.88;99020.75;10221063;23;20244;-76
2022/12/03 22:51:43;;;;;;;;;;;;;;;3.01;86.04;99024.13;10225672;23;20236;-76
2022/12/03 22:55:52;;;;;;;;;;;;;;;3.00;85.75;99019.84;10195877;23;19963;-74
2022/12/03 22:59:54;;;;;;;;;;;;;;;2.97;85.62;99019.78;10196372;23;19991;-74
2022/12/03 23:03:57;;;;;;;;;;;;;;;2.93;85.93;99020.56;10211874;23;20278;-74
2022/12/03 23:07:59;;;;;;;;;;;;;;;2.94;85.53;99016.31;10241765;23;20437;-74
2022/12/03 23:12:00;;;;;;;;;;;;;;;2.94;85.90;99022.28;10221025;23;20311;-75
2022/12/03 23:16:03;;;;;;;;;;;;;;;2.90;85.67;99022.22;10186779;23;19924;-74